AAL701 KATL-KCLT
Flight info
| Callsign | AAL701 |
|---|---|
| Flight time | N/A |
| Altitude | 23000 |
| Route | PHIIL3 PHIIL CNTLR JONZE5 |
| Aircraft | A320/M-SDE3FGHIRWY/LB1 |
Departure
| Time | 2026-05-07 18:52 |
|---|---|
| Airport | Hartsfield Jackson Atlanta International Airport (KATL) |
Arrival
| Time | N/A |
|---|---|
| Airport | Charlotte Douglas International Airport (KCLT) |
| Time | Latitude | Longitude | Altitude | Speed | Heading |
|---|---|---|---|---|---|
| 2026-05-07 18:50 | 33.63497 | -84.40745 | 948 ft | 3 kts | 176° |
| 2026-05-07 18:50 | 33.63481 | -84.40754 | 948 ft | 1 kts | 239° |
| 2026-05-07 18:50 | 33.63480 | -84.40757 | 948 ft | 0 kts | 249° |
| 2026-05-07 18:51 | 33.63479 | -84.40760 | 948 ft | 1 kts | 250° |
| 2026-05-07 18:51 | 33.63475 | -84.40774 | 949 ft | 2 kts | 258° |
| 2026-05-07 18:51 | 33.63471 | -84.40804 | 951 ft | 4 kts | 270° |
| 2026-05-07 18:51 | 33.63472 | -84.40913 | 956 ft | 38 kts | 270° |
| 2026-05-07 18:52 | 33.63471 | -84.41607 | 965 ft | 125 kts | 270° |
| 2026-05-07 18:52 | 33.63473 | -84.42942 | 1066 ft | 189 kts | 270° |
| 2026-05-07 18:52 | 33.63452 | -84.44685 | 1404 ft | 228 kts | 269° |
| 2026-05-07 18:52 | 33.63466 | -84.46655 | 1794 ft | 244 kts | 270° |
| 2026-05-07 18:53 | 33.63396 | -84.48590 | 2482 ft | 217 kts | 255° |
| 2026-05-07 18:53 | 33.62758 | -84.50104 | 2758 ft | 195 kts | 229° |
| 2026-05-07 18:53 | 33.61882 | -84.51286 | 2726 ft | 185 kts | 234° |
| 2026-05-07 18:54 | 33.60833 | -84.53620 | 2529 ft | 177 kts | 243° |
| 2026-05-07 18:54 | 33.60302 | -84.54937 | 2403 ft | 173 kts | 243° |
| 2026-05-07 18:54 | 33.59771 | -84.56218 | 2277 ft | 170 kts | 242° |
| 2026-05-07 18:54 | 33.59204 | -84.57502 | 2261 ft | 187 kts | 234° |
| 2026-05-07 18:55 | 33.58160 | -84.58507 | 2705 ft | 203 kts | 201° |
| 2026-05-07 18:55 | 33.56718 | -84.58649 | 3292 ft | 217 kts | 180° |
| 2026-05-07 18:55 | 33.56285 | -84.58609 | 3473 ft | 219 kts | 180° |